Airfield :
LOGIN :

Register | Disclaimer

   EN    FR    IT 

 










Legend :    VFR   Marginal VFR   IFR   Intensive IFR   Very Intensive IFR
Visi :
Ceiling :
>= 8 km
>= 3000ft
5 to 8 km
1000 to 3000 ft
1500m to 5 km
500 to 1000 ft
800 to 1500m
200 to 500 ft
< 800m
< 200 ft
Symbols :   Thunderstorms  Fog  Heavy snow  Heavy precipitations  Wind > 20 kt
SIGMETs :     Misc.  Thunderstorms  Icing  Turbulence  Mountain Waves  Volcanic Ashes






- Airport Elevation : 147 ft
- IATA code : DUS


EDDL - Düsseldorf Int.

CURRENT METAR :
  • 161120Z AUTO 26017KT 9999 SHRA SCT038 FEW///CB 19/15 Q1011 TEMPO 26015KT NSW

EXPIRED METARs :
  • 161050Z AUTO 20012KT 9999 -SHRA SCT039 FEW///CB 21/13 Q1011 TEMPO 21015G25KT SHRA SCT020TCU
  • 161020Z AUTO 21014KT 9999 FEW036 22/14 Q1011 TEMPO 21015G25KT SHRA SCT020TCU
  • 160950Z AUTO 23014KT 9999 SCT037 SCT044 20/13 Q1011 TEMPO 23015G25KT
  • 160920Z AUTO 21011KT 180V240 9999 FEW035 21/14 Q1011 TEMPO 23015G25KT
  • 160850Z AUTO 21014KT 9999 FEW033 20/14 Q1011 TEMPO 23015G25KT
  • 160820Z AUTO 21014KT 9999 SCT032 BKN048 20/14 Q1011 BECMG 23015G25KT
  • 160750Z AUTO 22011KT 9999 FEW027 20/14 Q1011 BECMG 23015G25KT
  • 160650Z AUTO 22012KT CAVOK 19/14 Q1011 BECMG 23015G25KT

TAF TAF EDDL
Valid from the 16 at 06:00 until the 17 at 12:00 UTC


160500Z 1606/1712 22012KT 9999 BKN025
BECMG 1606/1609 23015G25KT
TEMPO 1610/1617 24020G30KT SHRA BKN030CB
PROB30
TEMPO 1613/1616 4000 TSRA
PROB30
TEMPO 1617/1619 SHRA BKN020TCU
BECMG 1617/1620 23013KT
BECMG 1620/1623 23008KT
PROB30
TEMPO 1702/1708 BKN012



MET'MAP, your aeronautical weather chart ! - Copyright ORBIFLY December 2007 - Disclaimer

ORBIFLY MET'MAP TEAM :

Programming & Development : Alexandra Zaïnal
Original concept : Baudouin d'Aumeries
Technical & hardware support : Manuel Goepfert
Assistance : Marc-Olivier Méhu




SOURCES & CREDITS :

   NOAA